VQPR Airport Information

Runway Information
Runway 15 Length 6445 ft width 95 ft
Elevation 7355 ft Threshold 0 ft Heading 151
Runway 33 Length 6445 ft Width 95 ft
Elevation 7328 ft Threshold 0 ft Heading 331
Airport Frequencies
Airport Navaids
Type NDB Name Paro Frequency 410 KHZ
Type VOR Name Paro Frequency 108400 KHZ
Airport Weather Information & NOTAM
ADDS - METARS form results

(0233 UTC 23 September 2021)
Data provider http://aviationweather.gov/metar/data/
 
METAR text: VQPR 230200Z 31004KT 7000 FEW012 SCT020 BKN060 17/14 Q1024
Conditions at: VQPR (PARO , BT) observed 0200 UTC 23 September 2021
Temperature: 17.0°C (63°F)
Dewpoint: 14.0°C (57°F) [RH = 82%]
Pressure (altimeter): 30.24 inches Hg (1024.0 mb)
Winds: from the NW (310 degrees) at 5 MPH (4 knots; 2.1 m/s)
Visibility: 4 miles ( 7 km)
Ceiling: 6000 feet AGL
Clouds: few clouds at 1200 feet AGL
scattered clouds at 2000 feet AGL
broken clouds at 6000 feet AGL
Weather: no significant weather observed at this time